sensor_id;sensor_type;location;lat;lon;timestamp;P1;durP1;ratioP1;P2;durP2;ratioP2
2338;SDS011;1180;51.438;6.978;2023-04-28T00:01:45;6.57;;;5.83;;
2338;SDS011;1180;51.438;6.978;2023-04-28T00:04:10;11.60;;;7.00;;
2338;SDS011;1180;51.438;6.978;2023-04-28T00:06:36;9.20;;;5.80;;
2338;SDS011;1180;51.438;6.978;2023-04-28T00:09:01;5.47;;;4.97;;
2338;SDS011;1180;51.438;6.978;2023-04-28T00:11:27;7.10;;;6.40;;
2338;SDS011;1180;51.438;6.978;2023-04-28T00:13:53;8.73;;;6.50;;
2338;SDS011;1180;51.438;6.978;2023-04-28T00:16:18;9.23;;;5.87;;
2338;SDS011;1180;51.438;6.978;2023-04-28T00:18:43;7.17;;;6.47;;
2338;SDS011;1180;51.438;6.978;2023-04-28T00:21:09;8.10;;;7.30;;
2338;SDS011;1180;51.438;6.978;2023-04-28T00:23:34;8.73;;;7.20;;
2338;SDS011;1180;51.438;6.978;2023-04-28T00:26:00;9.47;;;7.07;;
2338;SDS011;1180;51.438;6.978;2023-04-28T00:28:25;12.60;;;7.60;;
2338;SDS011;1180;51.438;6.978;2023-04-28T00:30:51;11.00;;;8.63;;
2338;SDS011;1180;51.438;6.978;2023-04-28T00:33:16;12.60;;;7.40;;
2338;SDS011;1180;51.438;6.978;2023-04-28T00:35:41;7.00;;;6.30;;
2338;SDS011;1180;51.438;6.978;2023-04-28T00:38:07;9.80;;;7.00;;
2338;SDS011;1180;51.438;6.978;2023-04-28T00:40:33;8.10;;;6.20;;
2338;SDS011;1180;51.438;6.978;2023-04-28T00:42:58;9.90;;;8.90;;
2338;SDS011;1180;51.438;6.978;2023-04-28T00:45:23;8.20;;;6.53;;
2338;SDS011;1180;51.438;6.978;2023-04-28T00:47:49;8.03;;;7.20;;
2338;SDS011;1180;51.438;6.978;2023-04-28T00:50:14;7.70;;;6.80;;
2338;SDS011;1180;51.438;6.978;2023-04-28T00:52:40;7.47;;;6.40;;
2338;SDS011;1180;51.438;6.978;2023-04-28T00:55:07;8.27;;;6.40;;
2338;SDS011;1180;51.438;6.978;2023-04-28T00:57:33;9.00;;;7.20;;
2338;SDS011;1180;51.438;6.978;2023-04-28T01:00:00;10.60;;;7.60;;
2338;SDS011;1180;51.438;6.978;2023-04-28T01:02:26;10.63;;;7.80;;
2338;SDS011;1180;51.438;6.978;2023-04-28T01:04:53;8.33;;;7.53;;
2338;SDS011;1180;51.438;6.978;2023-04-28T01:07:20;10.97;;;7.73;;
2338;SDS011;1180;51.438;6.978;2023-04-28T01:09:46;11.10;;;7.83;;
2338;SDS011;1180;51.438;6.978;2023-04-28T01:12:12;8.60;;;7.70;;
2338;SDS011;1180;51.438;6.978;2023-04-28T01:14:37;8.23;;;7.00;;
2338;SDS011;1180;51.438;6.978;2023-04-28T01:17:03;11.77;;;8.17;;
2338;SDS011;1180;51.438;6.978;2023-04-28T01:19:29;9.27;;;6.67;;
2338;SDS011;1180;51.438;6.978;2023-04-28T01:21:55;12.83;;;8.30;;
2338;SDS011;1180;51.438;6.978;2023-04-28T01:24:20;11.07;;;8.77;;
2338;SDS011;1180;51.438;6.978;2023-04-28T01:26:46;10.37;;;7.63;;
2338;SDS011;1180;51.438;6.978;2023-04-28T01:29:12;10.27;;;7.80;;
2338;SDS011;1180;51.438;6.978;2023-04-28T01:31:37;10.67;;;8.63;;
2338;SDS011;1180;51.438;6.978;2023-04-28T01:34:03;8.73;;;7.83;;
2338;SDS011;1180;51.438;6.978;2023-04-28T01:36:28;12.23;;;7.83;;
2338;SDS011;1180;51.438;6.978;2023-04-28T01:38:54;9.73;;;7.97;;
2338;SDS011;1180;51.438;6.978;2023-04-28T01:41:20;12.83;;;8.70;;
2338;SDS011;1180;51.438;6.978;2023-04-28T01:43:46;10.00;;;7.93;;
2338;SDS011;1180;51.438;6.978;2023-04-28T01:46:11;9.80;;;8.30;;
2338;SDS011;1180;51.438;6.978;2023-04-28T01:48:37;10.40;;;7.83;;
2338;SDS011;1180;51.438;6.978;2023-04-28T01:51:02;9.27;;;7.43;;
2338;SDS011;1180;51.438;6.978;2023-04-28T01:53:29;12.40;;;8.60;;
2338;SDS011;1180;51.438;6.978;2023-04-28T01:55:55;13.57;;;9.53;;
2338;SDS011;1180;51.438;6.978;2023-04-28T01:58:20;12.33;;;9.73;;
2338;SDS011;1180;51.438;6.978;2023-04-28T02:00:46;11.27;;;9.33;;
2338;SDS011;1180;51.438;6.978;2023-04-28T02:03:12;16.27;;;9.40;;
2338;SDS011;1180;51.438;6.978;2023-04-28T02:05:37;17.50;;;10.07;;
2338;SDS011;1180;51.438;6.978;2023-04-28T02:08:03;12.30;;;8.40;;
2338;SDS011;1180;51.438;6.978;2023-04-28T02:10:28;11.90;;;10.20;;
2338;SDS011;1180;51.438;6.978;2023-04-28T02:12:54;10.13;;;8.80;;
2338;SDS011;1180;51.438;6.978;2023-04-28T02:15:19;13.93;;;9.60;;
2338;SDS011;1180;51.438;6.978;2023-04-28T02:17:45;12.27;;;8.77;;
2338;SDS011;1180;51.438;6.978;2023-04-28T02:20:11;13.60;;;9.00;;
2338;SDS011;1180;51.438;6.978;2023-04-28T02:22:38;13.23;;;9.60;;
2338;SDS011;1180;51.438;6.978;2023-04-28T02:25:03;10.70;;;9.60;;
2338;SDS011;1180;51.438;6.978;2023-04-28T02:27:29;11.73;;;8.43;;
2338;SDS011;1180;51.438;6.978;2023-04-28T02:29:55;12.83;;;9.90;;
2338;SDS011;1180;51.438;6.978;2023-04-28T02:32:20;12.90;;;10.87;;
2338;SDS011;1180;51.438;6.978;2023-04-28T02:34:46;10.70;;;9.47;;
2338;SDS011;1180;51.438;6.978;2023-04-28T02:37:11;11.60;;;9.50;;
2338;SDS011;1180;51.438;6.978;2023-04-28T02:39:36;13.17;;;9.77;;
2338;SDS011;1180;51.438;6.978;2023-04-28T02:42:02;12.70;;;10.10;;
2338;SDS011;1180;51.438;6.978;2023-04-28T02:44:29;10.23;;;8.80;;
2338;SDS011;1180;51.438;6.978;2023-04-28T02:46:55;15.87;;;9.07;;
2338;SDS011;1180;51.438;6.978;2023-04-28T02:49:20;13.43;;;10.40;;
2338;SDS011;1180;51.438;6.978;2023-04-28T02:51:46;11.60;;;9.10;;
2338;SDS011;1180;51.438;6.978;2023-04-28T02:54:11;12.20;;;10.20;;
2338;SDS011;1180;51.438;6.978;2023-04-28T02:56:37;14.53;;;10.83;;
2338;SDS011;1180;51.438;6.978;2023-04-28T02:59:04;13.13;;;8.80;;
2338;SDS011;1180;51.438;6.978;2023-04-28T03:01:30;10.43;;;8.73;;
2338;SDS011;1180;51.438;6.978;2023-04-28T03:03:56;11.40;;;10.00;;
2338;SDS011;1180;51.438;6.978;2023-04-28T03:06:21;11.30;;;9.50;;
2338;SDS011;1180;51.438;6.978;2023-04-28T03:08:46;14.00;;;9.53;;
2338;SDS011;1180;51.438;6.978;2023-04-28T03:11:12;12.27;;;10.17;;
2338;SDS011;1180;51.438;6.978;2023-04-28T03:13:37;14.00;;;9.40;;
2338;SDS011;1180;51.438;6.978;2023-04-28T03:16:03;13.53;;;10.57;;
2338;SDS011;1180;51.438;6.978;2023-04-28T03:18:30;12.57;;;8.70;;
2338;SDS011;1180;51.438;6.978;2023-04-28T03:20:55;15.23;;;9.97;;
2338;SDS011;1180;51.438;6.978;2023-04-28T03:23:21;11.27;;;9.80;;
2338;SDS011;1180;51.438;6.978;2023-04-28T03:25:46;9.80;;;8.73;;
2338;SDS011;1180;51.438;6.978;2023-04-28T03:28:12;13.00;;;10.63;;
2338;SDS011;1180;51.438;6.978;2023-04-28T03:30:38;12.30;;;8.83;;
2338;SDS011;1180;51.438;6.978;2023-04-28T03:33:03;11.93;;;9.40;;
2338;SDS011;1180;51.438;6.978;2023-04-28T03:35:29;11.37;;;9.20;;
2338;SDS011;1180;51.438;6.978;2023-04-28T03:37:55;11.40;;;9.47;;
2338;SDS011;1180;51.438;6.978;2023-04-28T03:40:21;12.70;;;9.13;;
2338;SDS011;1180;51.438;6.978;2023-04-28T03:42:46;12.87;;;9.30;;
2338;SDS011;1180;51.438;6.978;2023-04-28T03:45:12;10.40;;;8.47;;
2338;SDS011;1180;51.438;6.978;2023-04-28T03:47:37;11.87;;;9.73;;
2338;SDS011;1180;51.438;6.978;2023-04-28T03:50:03;9.23;;;8.13;;
2338;SDS011;1180;51.438;6.978;2023-04-28T03:52:29;11.30;;;8.57;;
2338;SDS011;1180;51.438;6.978;2023-04-28T03:54:55;9.70;;;8.13;;
2338;SDS011;1180;51.438;6.978;2023-04-28T03:57:20;10.50;;;8.60;;
2338;SDS011;1180;51.438;6.978;2023-04-28T03:59:46;10.60;;;8.00;;
2338;SDS011;1180;51.438;6.978;2023-04-28T04:02:11;11.73;;;8.53;;
2338;SDS011;1180;51.438;6.978;2023-04-28T04:04:37;11.57;;;8.47;;
2338;SDS011;1180;51.438;6.978;2023-04-28T04:07:03;11.93;;;7.70;;
2338;SDS011;1180;51.438;6.978;2023-04-28T04:09:28;9.67;;;8.67;;
2338;SDS011;1180;51.438;6.978;2023-04-28T04:11:54;15.03;;;9.00;;
2338;SDS011;1180;51.438;6.978;2023-04-28T04:14:19;13.27;;;8.07;;
2338;SDS011;1180;51.438;6.978;2023-04-28T04:16:45;9.63;;;8.00;;
2338;SDS011;1180;51.438;6.978;2023-04-28T04:19:14;8.97;;;8.07;;
2338;SDS011;1180;51.438;6.978;2023-04-28T04:21:40;11.00;;;6.90;;
2338;SDS011;1180;51.438;6.978;2023-04-28T04:24:06;7.83;;;7.03;;
2338;SDS011;1180;51.438;6.978;2023-04-28T04:26:32;7.47;;;6.77;;
2338;SDS011;1180;51.438;6.978;2023-04-28T04:28:57;7.77;;;6.97;;
2338;SDS011;1180;51.438;6.978;2023-04-28T04:31:23;9.80;;;7.37;;
2338;SDS011;1180;51.438;6.978;2023-04-28T04:33:48;8.33;;;7.43;;
2338;SDS011;1180;51.438;6.978;2023-04-28T04:36:14;9.20;;;6.80;;
2338;SDS011;1180;51.438;6.978;2023-04-28T04:38:39;9.70;;;7.20;;
2338;SDS011;1180;51.438;6.978;2023-04-28T04:41:05;9.70;;;7.93;;
2338;SDS011;1180;51.438;6.978;2023-04-28T04:43:31;9.17;;;7.40;;
2338;SDS011;1180;51.438;6.978;2023-04-28T04:45:56;8.47;;;7.63;;
2338;SDS011;1180;51.438;6.978;2023-04-28T04:48:22;14.57;;;8.30;;
2338;SDS011;1180;51.438;6.978;2023-04-28T04:50:47;8.70;;;7.80;;
2338;SDS011;1180;51.438;6.978;2023-04-28T04:53:13;13.13;;;7.70;;
2338;SDS011;1180;51.438;6.978;2023-04-28T04:55:38;8.30;;;7.50;;
2338;SDS011;1180;51.438;6.978;2023-04-28T04:58:04;11.57;;;8.10;;
2338;SDS011;1180;51.438;6.978;2023-04-28T05:00:29;10.93;;;8.47;;
2338;SDS011;1180;51.438;6.978;2023-04-28T05:02:55;11.00;;;8.03;;
2338;SDS011;1180;51.438;6.978;2023-04-28T05:05:20;8.33;;;7.33;;
2338;SDS011;1180;51.438;6.978;2023-04-28T05:07:46;10.37;;;8.90;;
2338;SDS011;1180;51.438;6.978;2023-04-28T05:10:11;10.40;;;8.40;;
2338;SDS011;1180;51.438;6.978;2023-04-28T05:12:37;8.90;;;8.10;;
2338;SDS011;1180;51.438;6.978;2023-04-28T05:15:03;9.50;;;7.10;;
2338;SDS011;1180;51.438;6.978;2023-04-28T05:17:30;11.50;;;8.77;;
2338;SDS011;1180;51.438;6.978;2023-04-28T05:19:56;8.60;;;7.70;;
2338;SDS011;1180;51.438;6.978;2023-04-28T05:22:21;12.77;;;8.50;;
2338;SDS011;1180;51.438;6.978;2023-04-28T05:24:47;7.40;;;6.70;;
2338;SDS011;1180;51.438;6.978;2023-04-28T05:27:12;10.37;;;8.33;;
2338;SDS011;1180;51.438;6.978;2023-04-28T05:29:38;13.37;;;8.20;;
2338;SDS011;1180;51.438;6.978;2023-04-28T05:32:03;9.00;;;8.10;;
2338;SDS011;1180;51.438;6.978;2023-04-28T05:34:29;8.73;;;7.83;;
2338;SDS011;1180;51.438;6.978;2023-04-28T05:36:54;6.97;;;6.27;;
2338;SDS011;1180;51.438;6.978;2023-04-28T05:39:20;8.60;;;7.50;;
2338;SDS011;1180;51.438;6.978;2023-04-28T05:41:45;12.27;;;8.00;;
2338;SDS011;1180;51.438;6.978;2023-04-28T05:44:11;9.57;;;7.43;;
2338;SDS011;1180;51.438;6.978;2023-04-28T05:46:36;8.30;;;7.07;;
2338;SDS011;1180;51.438;6.978;2023-04-28T05:49:01;8.73;;;7.63;;
2338;SDS011;1180;51.438;6.978;2023-04-28T05:51:27;8.13;;;7.20;;
2338;SDS011;1180;51.438;6.978;2023-04-28T05:53:53;7.73;;;6.87;;
2338;SDS011;1180;51.438;6.978;2023-04-28T05:56:18;12.70;;;7.80;;
2338;SDS011;1180;51.438;6.978;2023-04-28T05:58:44;8.23;;;7.40;;
2338;SDS011;1180;51.438;6.978;2023-04-28T06:01:11;10.70;;;6.87;;
2338;SDS011;1180;51.438;6.978;2023-04-28T06:03:36;8.17;;;7.13;;
2338;SDS011;1180;51.438;6.978;2023-04-28T06:06:02;13.50;;;7.87;;
2338;SDS011;1180;51.438;6.978;2023-04-28T06:08:27;7.90;;;7.10;;
2338;SDS011;1180;51.438;6.978;2023-04-28T06:10:53;7.60;;;6.83;;
2338;SDS011;1180;51.438;6.978;2023-04-28T06:13:19;9.43;;;7.10;;
2338;SDS011;1180;51.438;6.978;2023-04-28T06:15:44;7.43;;;6.13;;
2338;SDS011;1180;51.438;6.978;2023-04-28T06:18:10;12.63;;;7.77;;
2338;SDS011;1180;51.438;6.978;2023-04-28T06:20:35;8.87;;;6.23;;
2338;SDS011;1180;51.438;6.978;2023-04-28T06:23:01;9.07;;;5.90;;
2338;SDS011;1180;51.438;6.978;2023-04-28T06:25:27;9.20;;;6.83;;
2338;SDS011;1180;51.438;6.978;2023-04-28T06:27:53;7.53;;;6.37;;
2338;SDS011;1180;51.438;6.978;2023-04-28T06:30:19;8.10;;;7.20;;
2338;SDS011;1180;51.438;6.978;2023-04-28T06:32:46;8.83;;;7.20;;
2338;SDS011;1180;51.438;6.978;2023-04-28T06:35:12;7.10;;;6.20;;
2338;SDS011;1180;51.438;6.978;2023-04-28T06:37:37;8.50;;;7.60;;
2338;SDS011;1180;51.438;6.978;2023-04-28T06:40:03;13.53;;;4.60;;
2338;SDS011;1180;51.438;6.978;2023-04-28T06:42:29;13.10;;;7.77;;
2338;SDS011;1180;51.438;6.978;2023-04-28T06:44:54;10.00;;;6.33;;
2338;SDS011;1180;51.438;6.978;2023-04-28T06:47:20;7.07;;;6.43;;
2338;SDS011;1180;51.438;6.978;2023-04-28T06:49:45;10.27;;;7.40;;
2338;SDS011;1180;51.438;6.978;2023-04-28T06:52:14;7.90;;;6.70;;
2338;SDS011;1180;51.438;6.978;2023-04-28T06:54:40;7.60;;;6.37;;
2338;SDS011;1180;51.438;6.978;2023-04-28T06:57:05;9.43;;;6.30;;
2338;SDS011;1180;51.438;6.978;2023-04-28T06:59:31;12.80;;;7.30;;
2338;SDS011;1180;51.438;6.978;2023-04-28T07:01:56;8.37;;;7.10;;
2338;SDS011;1180;51.438;6.978;2023-04-28T07:04:22;6.90;;;6.20;;
2338;SDS011;1180;51.438;6.978;2023-04-28T07:06:48;8.07;;;7.20;;
2338;SDS011;1180;51.438;6.978;2023-04-28T07:09:14;6.07;;;5.43;;
2338;SDS011;1180;51.438;6.978;2023-04-28T07:11:41;10.87;;;6.70;;
2338;SDS011;1180;51.438;6.978;2023-04-28T07:14:07;7.10;;;6.40;;
2338;SDS011;1180;51.438;6.978;2023-04-28T07:16:32;7.20;;;6.50;;
2338;SDS011;1180;51.438;6.978;2023-04-28T07:18:58;8.23;;;6.10;;
2338;SDS011;1180;51.438;6.978;2023-04-28T07:21:23;7.90;;;7.10;;
2338;SDS011;1180;51.438;6.978;2023-04-28T07:23:49;7.07;;;6.40;;
2338;SDS011;1180;51.438;6.978;2023-04-28T07:26:15;7.47;;;6.77;;
2338;SDS011;1180;51.438;6.978;2023-04-28T07:28:41;8.80;;;6.67;;
2338;SDS011;1180;51.438;6.978;2023-04-28T07:31:08;6.87;;;6.23;;
2338;SDS011;1180;51.438;6.978;2023-04-28T07:33:33;7.10;;;6.50;;
2338;SDS011;1180;51.438;6.978;2023-04-28T07:35:59;6.23;;;5.30;;
2338;SDS011;1180;51.438;6.978;2023-04-28T07:38:24;8.00;;;5.77;;
2338;SDS011;1180;51.438;6.978;2023-04-28T07:40:50;6.47;;;5.33;;
2338;SDS011;1180;51.438;6.978;2023-04-28T07:43:15;7.70;;;5.73;;
2338;SDS011;1180;51.438;6.978;2023-04-28T07:45:41;6.50;;;5.63;;
2338;SDS011;1180;51.438;6.978;2023-04-28T07:48:09;8.10;;;6.07;;
2338;SDS011;1180;51.438;6.978;2023-04-28T07:50:35;8.73;;;5.63;;
2338;SDS011;1180;51.438;6.978;2023-04-28T07:53:00;8.97;;;5.67;;
2338;SDS011;1180;51.438;6.978;2023-04-28T07:55:26;7.77;;;6.23;;
2338;SDS011;1180;51.438;6.978;2023-04-28T07:57:51;7.00;;;5.97;;
2338;SDS011;1180;51.438;6.978;2023-04-28T08:00:16;6.40;;;5.70;;
2338;SDS011;1180;51.438;6.978;2023-04-28T08:02:43;7.10;;;5.93;;
2338;SDS011;1180;51.438;6.978;2023-04-28T08:05:08;7.87;;;6.00;;
2338;SDS011;1180;51.438;6.978;2023-04-28T08:07:34;6.20;;;5.60;;
2338;SDS011;1180;51.438;6.978;2023-04-28T08:10:01;6.47;;;5.87;;
2338;SDS011;1180;51.438;6.978;2023-04-28T08:12:27;6.93;;;5.03;;
2338;SDS011;1180;51.438;6.978;2023-04-28T08:14:52;10.60;;;6.10;;
2338;SDS011;1180;51.438;6.978;2023-04-28T08:17:17;6.80;;;5.00;;
2338;SDS011;1180;51.438;6.978;2023-04-28T08:19:43;6.40;;;5.80;;
2338;SDS011;1180;51.438;6.978;2023-04-28T08:22:10;6.20;;;5.20;;
2338;SDS011;1180;51.438;6.978;2023-04-28T08:24:36;6.33;;;5.70;;
2338;SDS011;1180;51.438;6.978;2023-04-28T08:27:01;5.27;;;4.73;;
2338;SDS011;1180;51.438;6.978;2023-04-28T08:29:28;6.03;;;5.33;;
2338;SDS011;1180;51.438;6.978;2023-04-28T08:31:54;7.00;;;4.93;;
2338;SDS011;1180;51.438;6.978;2023-04-28T08:34:20;8.03;;;5.17;;
2338;SDS011;1180;51.438;6.978;2023-04-28T08:36:45;6.37;;;5.63;;
2338;SDS011;1180;51.438;6.978;2023-04-28T08:39:11;6.47;;;5.17;;
2338;SDS011;1180;51.438;6.978;2023-04-28T08:41:37;7.73;;;5.13;;
2338;SDS011;1180;51.438;6.978;2023-04-28T08:44:09;5.60;;;5.17;;
2338;SDS011;1180;51.438;6.978;2023-04-28T08:46:36;6.83;;;5.57;;
2338;SDS011;1180;51.438;6.978;2023-04-28T08:49:05;6.00;;;5.03;;
2338;SDS011;1180;51.438;6.978;2023-04-28T08:51:37;6.37;;;5.50;;
2338;SDS011;1180;51.438;6.978;2023-04-28T08:54:14;9.57;;;5.40;;
2338;SDS011;1180;51.438;6.978;2023-04-28T08:56:40;6.10;;;5.37;;
2338;SDS011;1180;51.438;6.978;2023-04-28T08:59:09;6.13;;;5.53;;
2338;SDS011;1180;51.438;6.978;2023-04-28T09:01:36;6.83;;;5.57;;
2338;SDS011;1180;51.438;6.978;2023-04-28T09:04:02;5.77;;;5.10;;
2338;SDS011;1180;51.438;6.978;2023-04-28T09:06:34;5.07;;;4.67;;
2338;SDS011;1180;51.438;6.978;2023-04-28T09:12:07;6.90;;;6.20;;
2338;SDS011;1180;51.438;6.978;2023-04-28T09:14:32;8.90;;;6.60;;
2338;SDS011;1180;51.438;6.978;2023-04-28T09:16:59;6.87;;;5.80;;
2338;SDS011;1180;51.438;6.978;2023-04-28T09:19:35;6.60;;;5.93;;
2338;SDS011;1180;51.438;6.978;2023-04-28T09:22:01;7.30;;;5.43;;
2338;SDS011;1180;51.438;6.978;2023-04-28T09:24:32;7.33;;;5.40;;
2338;SDS011;1180;51.438;6.978;2023-04-28T09:27:04;6.80;;;5.80;;
2338;SDS011;1180;51.438;6.978;2023-04-28T09:29:35;7.00;;;5.90;;
2338;SDS011;1180;51.438;6.978;2023-04-28T09:32:16;10.20;;;6.67;;
2338;SDS011;1180;51.438;6.978;2023-04-28T09:34:43;6.83;;;6.13;;
2338;SDS011;1180;51.438;6.978;2023-04-28T09:37:16;7.27;;;5.33;;
2338;SDS011;1180;51.438;6.978;2023-04-28T09:39:44;7.00;;;6.27;;
2338;SDS011;1180;51.438;6.978;2023-04-28T09:42:30;7.03;;;5.30;;
2338;SDS011;1180;51.438;6.978;2023-04-28T09:45:04;6.33;;;5.73;;
2338;SDS011;1180;51.438;6.978;2023-04-28T09:47:32;8.27;;;7.10;;
2338;SDS011;1180;51.438;6.978;2023-04-28T09:50:00;9.13;;;5.50;;
2338;SDS011;1180;51.438;6.978;2023-04-28T09:52:27;6.10;;;5.47;;
2338;SDS011;1180;51.438;6.978;2023-04-28T09:54:53;6.90;;;6.30;;
2338;SDS011;1180;51.438;6.978;2023-04-28T09:57:19;8.47;;;6.37;;
2338;SDS011;1180;51.438;6.978;2023-04-28T09:59:46;8.70;;;6.97;;
2338;SDS011;1180;51.438;6.978;2023-04-28T10:02:14;8.63;;;6.50;;
2338;SDS011;1180;51.438;6.978;2023-04-28T10:04:43;7.37;;;5.93;;
2338;SDS011;1180;51.438;6.978;2023-04-28T10:07:12;6.97;;;6.23;;
2338;SDS011;1180;51.438;6.978;2023-04-28T10:09:44;7.17;;;6.40;;
2338;SDS011;1180;51.438;6.978;2023-04-28T10:12:18;6.47;;;5.73;;
2338;SDS011;1180;51.438;6.978;2023-04-28T10:14:45;7.80;;;6.80;;
2338;SDS011;1180;51.438;6.978;2023-04-28T10:17:14;7.40;;;6.10;;
2338;SDS011;1180;51.438;6.978;2023-04-28T10:19:40;6.80;;;6.10;;
2338;SDS011;1180;51.438;6.978;2023-04-28T10:24:35;8.30;;;7.10;;
2338;SDS011;1180;51.438;6.978;2023-04-28T10:27:18;10.87;;;7.57;;
2338;SDS011;1180;51.438;6.978;2023-04-28T10:29:43;6.60;;;5.87;;
2338;SDS011;1180;51.438;6.978;2023-04-28T10:34:45;8.53;;;5.63;;
2338;SDS011;1180;51.438;6.978;2023-04-28T10:37:11;10.87;;;6.80;;
2338;SDS011;1180;51.438;6.978;2023-04-28T10:39:39;7.10;;;6.40;;
2338;SDS011;1180;51.438;6.978;2023-04-28T10:42:11;10.00;;;6.50;;
2338;SDS011;1180;51.438;6.978;2023-04-28T10:46:08;6.90;;;5.50;;
2338;SDS011;1180;51.438;6.978;2023-04-28T10:58:39;9.70;;;7.70;;
2338;SDS011;1180;51.438;6.978;2023-04-28T11:06:17;8.70;;;7.80;;
2338;SDS011;1180;51.438;6.978;2023-04-28T11:08:49;9.90;;;8.10;;
2338;SDS011;1180;51.438;6.978;2023-04-28T11:11:16;10.63;;;7.93;;
2338;SDS011;1180;51.438;6.978;2023-04-28T11:13:46;9.23;;;8.33;;
2338;SDS011;1180;51.438;6.978;2023-04-28T11:16:18;9.60;;;8.70;;
2338;SDS011;1180;51.438;6.978;2023-04-28T11:18:51;9.90;;;8.53;;
2338;SDS011;1180;51.438;6.978;2023-04-28T11:21:18;9.97;;;7.90;;
2338;SDS011;1180;51.438;6.978;2023-04-28T11:23:45;10.03;;;8.87;;
2338;SDS011;1180;51.438;6.978;2023-04-28T11:26:12;10.13;;;8.80;;
2338;SDS011;1180;51.438;6.978;2023-04-28T11:31:17;9.67;;;8.77;;
2338;SDS011;1180;51.438;6.978;2023-04-28T11:33:50;9.73;;;8.80;;
2338;SDS011;1180;51.438;6.978;2023-04-28T11:36:23;11.20;;;9.37;;
2338;SDS011;1180;51.438;6.978;2023-04-28T11:38:51;10.83;;;8.90;;
2338;SDS011;1180;51.438;6.978;2023-04-28T11:41:21;10.43;;;9.37;;
2338;SDS011;1180;51.438;6.978;2023-04-28T11:43:52;10.20;;;9.20;;
2338;SDS011;1180;51.438;6.978;2023-04-28T11:46:19;9.63;;;8.70;;
2338;SDS011;1180;51.438;6.978;2023-04-28T11:48:47;10.90;;;9.90;;
2338;SDS011;1180;51.438;6.978;2023-04-28T11:51:28;11.30;;;10.20;;
2338;SDS011;1180;51.438;6.978;2023-04-28T11:54:04;10.27;;;9.37;;
2338;SDS011;1180;51.438;6.978;2023-04-28T11:56:37;9.47;;;8.57;;
2338;SDS011;1180;51.438;6.978;2023-04-28T11:59:08;10.20;;;9.30;;
2338;SDS011;1180;51.438;6.978;2023-04-28T12:01:45;12.80;;;11.33;;
2338;SDS011;1180;51.438;6.978;2023-04-28T12:04:28;9.83;;;8.93;;
2338;SDS011;1180;51.438;6.978;2023-04-28T12:09:38;10.20;;;9.27;;
2338;SDS011;1180;51.438;6.978;2023-04-28T12:12:06;9.50;;;8.70;;
2338;SDS011;1180;51.438;6.978;2023-04-28T12:17:24;11.33;;;9.17;;
2338;SDS011;1180;51.438;6.978;2023-04-28T12:19:51;9.43;;;8.63;;
2338;SDS011;1180;51.438;6.978;2023-04-28T12:22:18;9.87;;;8.97;;
2338;SDS011;1180;51.438;6.978;2023-04-28T12:24:44;10.70;;;9.80;;
2338;SDS011;1180;51.438;6.978;2023-04-28T12:27:14;11.63;;;10.23;;
2338;SDS011;1180;51.438;6.978;2023-04-28T12:29:49;12.67;;;11.37;;
2338;SDS011;1180;51.438;6.978;2023-04-28T12:32:16;11.90;;;10.83;;
2338;SDS011;1180;51.438;6.978;2023-04-28T12:34:43;10.97;;;9.97;;
2338;SDS011;1180;51.438;6.978;2023-04-28T12:37:10;14.17;;;12.77;;
2338;SDS011;1180;51.438;6.978;2023-04-28T12:39:38;14.77;;;13.27;;
2338;SDS011;1180;51.438;6.978;2023-04-28T12:42:05;14.10;;;12.67;;
2338;SDS011;1180;51.438;6.978;2023-04-28T12:44:32;14.93;;;13.60;;
2338;SDS011;1180;51.438;6.978;2023-04-28T12:47:00;14.00;;;12.70;;
2338;SDS011;1180;51.438;6.978;2023-04-28T12:49:35;13.63;;;12.47;;
2338;SDS011;1180;51.438;6.978;2023-04-28T12:52:03;14.20;;;13.00;;
2338;SDS011;1180;51.438;6.978;2023-04-28T12:54:31;13.10;;;11.90;;
2338;SDS011;1180;51.438;6.978;2023-04-28T12:56:58;13.20;;;11.97;;
2338;SDS011;1180;51.438;6.978;2023-04-28T12:59:26;14.67;;;13.20;;
2338;SDS011;1180;51.438;6.978;2023-04-28T13:01:53;13.20;;;12.00;;
2338;SDS011;1180;51.438;6.978;2023-04-28T13:04:20;13.97;;;12.83;;
2338;SDS011;1180;51.438;6.978;2023-04-28T13:06:47;11.40;;;10.30;;
2338;SDS011;1180;51.438;6.978;2023-04-28T13:09:13;10.30;;;9.40;;
2338;SDS011;1180;51.438;6.978;2023-04-28T13:11:40;9.87;;;8.97;;
2338;SDS011;1180;51.438;6.978;2023-04-28T13:14:08;13.37;;;11.63;;
2338;SDS011;1180;51.438;6.978;2023-04-28T13:16:34;10.00;;;9.00;;
2338;SDS011;1180;51.438;6.978;2023-04-28T13:19:01;8.10;;;6.40;;
2338;SDS011;1180;51.438;6.978;2023-04-28T13:21:35;11.67;;;10.60;;
2338;SDS011;1180;51.438;6.978;2023-04-28T13:24:03;9.23;;;8.43;;
2338;SDS011;1180;51.438;6.978;2023-04-28T13:26:30;10.00;;;8.53;;
2338;SDS011;1180;51.438;6.978;2023-04-28T13:28:56;7.23;;;6.53;;
2338;SDS011;1180;51.438;6.978;2023-04-28T13:31:22;8.47;;;7.77;;
2338;SDS011;1180;51.438;6.978;2023-04-28T13:33:49;8.73;;;8.00;;
2338;SDS011;1180;51.438;6.978;2023-04-28T13:36:15;6.60;;;5.90;;
2338;SDS011;1180;51.438;6.978;2023-04-28T13:38:41;6.33;;;5.83;;
2338;SDS011;1180;51.438;6.978;2023-04-28T13:41:10;7.10;;;6.40;;
2338;SDS011;1180;51.438;6.978;2023-04-28T13:43:36;7.00;;;6.47;;
2338;SDS011;1180;51.438;6.978;2023-04-28T13:46:03;7.40;;;6.80;;
2338;SDS011;1180;51.438;6.978;2023-04-28T13:48:33;7.00;;;6.30;;
2338;SDS011;1180;51.438;6.978;2023-04-28T13:51:00;7.10;;;6.40;;
2338;SDS011;1180;51.438;6.978;2023-04-28T13:53:29;6.90;;;6.30;;
2338;SDS011;1180;51.438;6.978;2023-04-28T13:55:56;5.63;;;5.20;;
2338;SDS011;1180;51.438;6.978;2023-04-28T13:58:25;5.83;;;5.37;;
2338;SDS011;1180;51.438;6.978;2023-04-28T14:00:53;6.30;;;5.80;;
2338;SDS011;1180;51.438;6.978;2023-04-28T14:03:20;7.50;;;6.90;;
2338;SDS011;1180;51.438;6.978;2023-04-28T14:05:50;6.40;;;5.90;;
2338;SDS011;1180;51.438;6.978;2023-04-28T14:08:19;5.87;;;5.37;;
2338;SDS011;1180;51.438;6.978;2023-04-28T14:10:47;6.37;;;5.77;;
2338;SDS011;1180;51.438;6.978;2023-04-28T14:13:14;5.70;;;5.30;;
2338;SDS011;1180;51.438;6.978;2023-04-28T14:15:40;6.43;;;5.87;;
2338;SDS011;1180;51.438;6.978;2023-04-28T14:18:07;6.20;;;5.80;;
2338;SDS011;1180;51.438;6.978;2023-04-28T14:20:34;5.60;;;5.10;;
2338;SDS011;1180;51.438;6.978;2023-04-28T14:23:00;7.17;;;6.47;;
2338;SDS011;1180;51.438;6.978;2023-04-28T14:25:26;7.10;;;6.47;;
2338;SDS011;1180;51.438;6.978;2023-04-28T14:27:53;9.13;;;7.40;;
2338;SDS011;1180;51.438;6.978;2023-04-28T14:30:19;7.40;;;6.80;;
2338;SDS011;1180;51.438;6.978;2023-04-28T14:32:46;6.33;;;5.93;;
2338;SDS011;1180;51.438;6.978;2023-04-28T14:35:12;5.87;;;5.37;;
2338;SDS011;1180;51.438;6.978;2023-04-28T14:37:39;6.57;;;6.07;;
2338;SDS011;1180;51.438;6.978;2023-04-28T14:40:06;6.40;;;5.80;;
2338;SDS011;1180;51.438;6.978;2023-04-28T14:42:34;7.13;;;6.53;;
2338;SDS011;1180;51.438;6.978;2023-04-28T14:45:04;5.63;;;5.23;;
2338;SDS011;1180;51.438;6.978;2023-04-28T14:47:33;7.53;;;6.83;;
2338;SDS011;1180;51.438;6.978;2023-04-28T14:50:00;7.00;;;6.33;;
2338;SDS011;1180;51.438;6.978;2023-04-28T14:52:26;6.07;;;5.40;;
2338;SDS011;1180;51.438;6.978;2023-04-28T14:54:53;5.50;;;4.93;;
2338;SDS011;1180;51.438;6.978;2023-04-28T14:57:21;4.60;;;4.30;;
2338;SDS011;1180;51.438;6.978;2023-04-28T14:59:48;3.30;;;3.10;;
2338;SDS011;1180;51.438;6.978;2023-04-28T15:02:18;4.40;;;4.00;;
2338;SDS011;1180;51.438;6.978;2023-04-28T15:04:50;4.73;;;4.07;;
2338;SDS011;1180;51.438;6.978;2023-04-28T15:07:17;6.00;;;3.87;;
2338;SDS011;1180;51.438;6.978;2023-04-28T15:09:45;5.63;;;4.93;;
2338;SDS011;1180;51.438;6.978;2023-04-28T15:12:13;5.50;;;5.10;;
2338;SDS011;1180;51.438;6.978;2023-04-28T15:14:39;7.37;;;4.03;;
2338;SDS011;1180;51.438;6.978;2023-04-28T15:17:06;3.60;;;3.30;;
2338;SDS011;1180;51.438;6.978;2023-04-28T15:19:33;4.27;;;3.20;;
2338;SDS011;1180;51.438;6.978;2023-04-28T15:22:00;3.10;;;2.90;;
2338;SDS011;1180;51.438;6.978;2023-04-28T15:24:27;3.40;;;3.20;;
2338;SDS011;1180;51.438;6.978;2023-04-28T15:26:54;3.87;;;3.53;;
2338;SDS011;1180;51.438;6.978;2023-04-28T15:29:20;3.73;;;3.43;;
2338;SDS011;1180;51.438;6.978;2023-04-28T15:31:46;4.30;;;3.90;;
2338;SDS011;1180;51.438;6.978;2023-04-28T15:34:13;4.83;;;4.43;;
2338;SDS011;1180;51.438;6.978;2023-04-28T15:36:39;5.73;;;5.23;;
2338;SDS011;1180;51.438;6.978;2023-04-28T15:39:06;7.37;;;6.70;;
2338;SDS011;1180;51.438;6.978;2023-04-28T15:41:33;8.93;;;8.17;;